Time;durP1;ratioP1;P1;durP2;ratioP2;P2;SDS_P1;SDS_P2;PMS_P1;PMS_P2;Temp;Humidity;BMP_temperature;BMP_pressure;BME280_temperature;BME280_humidity;BME280_pressure;Samples;Min_cycle;Max_cycle;Signal;HPM_P1;HPM_P2
2021/05/29 00:01:22;;;;;;;11.75;6.53;;;;;;;;;;5012945;28;20024;-83
2021/05/29 00:03:48;;;;;;;19.85;10.70;;;;;;;;;;5027947;28;20021;-83
2021/05/29 00:06:13;;;;;;;31.00;15.60;;;;;;;;;;5013115;28;20091;-83
2021/05/29 00:08:38;;;;;;;31.10;14.43;;;;;;;;;;5023958;28;20445;-83
2021/05/29 00:11:04;;;;;;;30.42;13.05;;;;;;;;;;5011353;28;20018;-83
2021/05/29 00:13:30;;;;;;;25.20;11.63;;;;;;;;;;5011296;28;20022;-83
2021/05/29 00:15:56;;;;;;;15.38;7.95;;;;;;;;;;5012988;28;20032;-83
2021/05/29 00:18:24;;;;;;;12.00;7.00;;;;;;;;;;5011574;28;20030;-83
2021/05/29 00:20:49;;;;;;;14.48;7.00;;;;;;;;;;5011500;28;20049;-83
2021/05/29 00:23:14;;;;;;;12.65;6.95;;;;;;;;;;5012289;28;20054;-83
2021/05/29 00:25:40;;;;;;;17.83;7.22;;;;;;;;;;5011695;28;20016;-83
2021/05/29 00:28:06;;;;;;;11.63;6.60;;;;;;;;;;5012564;28;20022;-83
2021/05/29 00:30:31;;;;;;;14.57;7.13;;;;;;;;;;5023673;28;20115;-83
2021/05/29 00:32:56;;;;;;;12.82;7.43;;;;;;;;;;5011084;28;20018;-83
2021/05/29 00:35:22;;;;;;;12.00;6.80;;;;;;;;;;5010877;28;20033;-83
2021/05/29 00:37:47;;;;;;;11.18;6.40;;;;;;;;;;5010828;28;20010;-83
2021/05/29 00:40:12;;;;;;;10.95;6.22;;;;;;;;;;5010879;28;20087;-83
2021/05/29 00:42:38;;;;;;;11.80;6.20;;;;;;;;;;5010678;28;20053;-83
2021/05/29 00:45:03;;;;;;;11.52;6.15;;;;;;;;;;5020366;28;20113;-83
2021/05/29 00:47:29;;;;;;;11.00;5.80;;;;;;;;;;5016326;28;20022;-82
2021/05/29 00:49:55;;;;;;;12.05;6.18;;;;;;;;;;5012238;28;20014;-82
2021/05/29 00:52:22;;;;;;;11.23;6.50;;;;;;;;;;5012250;28;20034;-82
2021/05/29 00:54:48;;;;;;;10.15;6.05;;;;;;;;;;5011858;28;20067;-83
2021/05/29 00:57:13;;;;;;;13.80;7.10;;;;;;;;;;5012122;28;20030;-82
2021/05/29 00:59:39;;;;;;;11.10;6.90;;;;;;;;;;5010410;28;20030;-82
2021/05/29 01:02:05;;;;;;;11.07;6.38;;;;;;;;;;5011800;28;20026;-82
2021/05/29 01:04:31;;;;;;;12.38;6.72;;;;;;;;;;5011838;28;20457;-82
2021/05/29 01:06:56;;;;;;;16.52;8.73;;;;;;;;;;5010511;28;20033;-83
2021/05/29 01:09:22;;;;;;;14.95;8.25;;;;;;;;;;5011541;28;20462;-83
2021/05/29 01:11:48;;;;;;;18.38;8.88;;;;;;;;;;5011642;28;20374;-82
2021/05/29 01:14:13;;;;;;;19.42;9.35;;;;;;;;;;5011645;28;20067;-83
2021/05/29 01:19:06;;;;;;;15.18;8.20;;;;;;;;;;5011696;28;20029;-82
2021/05/29 01:21:32;;;;;;;12.73;7.75;;;;;;;;;;5011686;28;20018;-82
2021/05/29 01:23:57;;;;;;;13.75;7.05;;;;;;;;;;5011277;28;20487;-83
2021/05/29 01:26:23;;;;;;;10.75;6.68;;;;;;;;;;5011401;28;20028;-82
2021/05/29 01:28:54;;;;;;;9.48;6.28;;;;;;;;;;5011427;28;20362;-83
2021/05/29 01:31:24;;;;;;;11.45;6.63;;;;;;;;;;5010150;28;20026;-82
2021/05/29 01:33:53;;;;;;;11.98;6.75;;;;;;;;;;5011191;28;20030;-83
2021/05/29 01:36:19;;;;;;;14.77;6.63;;;;;;;;;;5011116;28;20060;-82
2021/05/29 01:38:44;;;;;;;12.07;6.97;;;;;;;;;;5010239;28;20058;-82
2021/05/29 01:41:11;;;;;;;10.80;6.70;;;;;;;;;;5009876;28;20029;-82
2021/05/29 01:43:37;;;;;;;9.63;5.82;;;;;;;;;;5010871;28;20026;-82
2021/05/29 01:46:03;;;;;;;14.23;6.53;;;;;;;;;;5010885;28;20104;-82
2021/05/29 01:48:34;;;;;;;13.30;6.35;;;;;;;;;;5011169;28;20553;-83
2021/05/29 01:50:59;;;;;;;9.70;6.10;;;;;;;;;;5010709;28;20380;-82
2021/05/29 01:53:24;;;;;;;8.82;6.00;;;;;;;;;;5009634;28;20018;-82
2021/05/29 01:55:50;;;;;;;11.25;6.03;;;;;;;;;;5011453;28;20041;-82
2021/05/29 01:58:16;;;;;;;11.25;6.50;;;;;;;;;;5010640;28;20024;-82
2021/05/29 02:00:41;;;;;;;8.18;5.95;;;;;;;;;;5011141;28;20105;-82
2021/05/29 02:03:06;;;;;;;10.35;6.60;;;;;;;;;;5010740;28;20109;-82
2021/05/29 02:05:33;;;;;;;10.65;5.97;;;;;;;;;;5009793;28;20083;-82
2021/05/29 02:07:59;;;;;;;10.07;6.20;;;;;;;;;;5010822;28;20018;-82
2021/05/29 02:10:26;;;;;;;10.75;6.45;;;;;;;;;;5010651;28;20014;-83
2021/05/29 02:12:53;;;;;;;10.65;6.60;;;;;;;;;;5010656;28;20044;-83
2021/05/29 02:15:19;;;;;;;11.00;7.25;;;;;;;;;;5011119;28;20022;-82
2021/05/29 02:17:46;;;;;;;11.13;7.03;;;;;;;;;;5009379;28;20025;-82
2021/05/29 02:20:12;;;;;;;10.07;6.60;;;;;;;;;;5010500;28;20018;-82
2021/05/29 02:22:37;;;;;;;13.32;6.30;;;;;;;;;;5009161;28;20026;-83
2021/05/29 02:25:03;;;;;;;10.07;6.63;;;;;;;;;;5010599;28;20151;-83
2021/05/29 02:27:28;;;;;;;11.90;6.82;;;;;;;;;;5010235;28;20022;-83
2021/05/29 02:29:54;;;;;;;11.13;6.85;;;;;;;;;;5009119;28;20029;-82
2021/05/29 02:32:19;;;;;;;10.95;6.90;;;;;;;;;;5010514;28;20018;-83
2021/05/29 02:34:44;;;;;;;10.90;7.00;;;;;;;;;;5010474;28;20101;-82
2021/05/29 02:37:09;;;;;;;10.18;6.78;;;;;;;;;;5008966;28;20022;-82
2021/05/29 02:39:34;;;;;;;15.63;7.68;;;;;;;;;;5010277;28;20101;-83
2021/05/29 02:42:00;;;;;;;15.20;7.47;;;;;;;;;;5019588;28;20018;-82
2021/05/29 02:44:25;;;;;;;12.10;7.38;;;;;;;;;;5010412;28;20018;-82
2021/05/29 02:46:51;;;;;;;12.32;7.68;;;;;;;;;;5010146;28;20397;-82
2021/05/29 02:49:16;;;;;;;9.77;6.68;;;;;;;;;;5011257;28;20022;-82
2021/05/29 02:51:41;;;;;;;13.27;7.22;;;;;;;;;;5013764;28;20583;-82
2021/05/29 02:54:07;;;;;;;10.07;6.80;;;;;;;;;;5013508;28;20018;-82
2021/05/29 02:56:32;;;;;;;11.13;6.65;;;;;;;;;;5012664;28;20112;-82
2021/05/29 02:58:57;;;;;;;10.32;7.00;;;;;;;;;;5014097;28;20356;-82
2021/05/29 03:01:22;;;;;;;12.07;6.78;;;;;;;;;;5013646;28;20049;-82
2021/05/29 03:03:48;;;;;;;12.55;7.18;;;;;;;;;;5012489;28;20423;-82
2021/05/29 03:06:13;;;;;;;12.52;7.20;;;;;;;;;;5012363;28;20022;-83
2021/05/29 03:08:38;;;;;;;11.02;6.47;;;;;;;;;;5012440;28;20021;-82
2021/05/29 03:11:05;;;;;;;12.98;6.50;;;;;;;;;;5013365;28;20045;-82
2021/05/29 03:13:30;;;;;;;11.27;6.80;;;;;;;;;;5013573;28;20049;-82
2021/05/29 03:15:55;;;;;;;14.32;7.85;;;;;;;;;;5013369;28;20018;-82
2021/05/29 03:18:20;;;;;;;11.60;7.13;;;;;;;;;;5011965;28;20499;-82
2021/05/29 03:20:45;;;;;;;10.68;7.60;;;;;;;;;;5013339;28;20018;-82
2021/05/29 03:23:11;;;;;;;13.32;8.02;;;;;;;;;;5013260;28;20043;-82
2021/05/29 03:25:36;;;;;;;11.25;7.47;;;;;;;;;;5014386;28;20374;-82
2021/05/29 03:28:01;;;;;;;12.40;8.00;;;;;;;;;;5014016;28;20043;-82
2021/05/29 03:30:28;;;;;;;9.93;6.95;;;;;;;;;;5028637;28;20067;-82
2021/05/29 03:32:54;;;;;;;12.15;7.22;;;;;;;;;;5012036;28;20030;-82
2021/05/29 03:35:19;;;;;;;12.40;7.40;;;;;;;;;;5012263;28;20033;-82
2021/05/29 03:37:44;;;;;;;11.38;7.47;;;;;;;;;;5013137;28;20018;-82
2021/05/29 03:40:10;;;;;;;10.75;7.10;;;;;;;;;;5013121;28;20365;-82
2021/05/29 03:42:36;;;;;;;10.68;6.65;;;;;;;;;;5015017;28;20030;-82
2021/05/29 03:45:02;;;;;;;11.18;7.03;;;;;;;;;;5028159;28;20018;-82
2021/05/29 03:47:28;;;;;;;13.23;7.32;;;;;;;;;;5011999;28;20105;-82
2021/05/29 03:49:53;;;;;;;12.00;7.15;;;;;;;;;;5011640;28;20048;-82
2021/05/29 03:52:18;;;;;;;13.82;7.40;;;;;;;;;;5013125;28;20022;-82
2021/05/29 03:54:44;;;;;;;11.52;7.32;;;;;;;;;;5028261;28;20026;-83
2021/05/29 03:57:09;;;;;;;10.25;6.65;;;;;;;;;;5012972;28;20052;-83
2021/05/29 03:59:34;;;;;;;11.98;7.13;;;;;;;;;;5028031;28;20415;-82
2021/05/29 04:01:59;;;;;;;11.07;6.72;;;;;;;;;;5011778;28;20026;-82
2021/05/29 04:04:24;;;;;;;13.73;7.60;;;;;;;;;;5012661;28;20092;-82
2021/05/29 04:06:50;;;;;;;11.93;7.00;;;;;;;;;;5013140;28;20074;-82
2021/05/29 04:09:15;;;;;;;12.63;7.57;;;;;;;;;;5027664;28;20119;-82
2021/05/29 04:11:40;;;;;;;11.60;7.28;;;;;;;;;;5011322;28;20101;-82
2021/05/29 04:14:06;;;;;;;10.07;6.72;;;;;;;;;;5011203;28;20022;-82
2021/05/29 04:16:32;;;;;;;11.40;7.43;;;;;;;;;;5011257;28;20421;-82
2021/05/29 04:18:57;;;;;;;16.02;8.23;;;;;;;;;;5012389;28;20055;-82
2021/05/29 04:21:23;;;;;;;12.30;7.93;;;;;;;;;;5011275;28;20057;-82
2021/05/29 04:23:48;;;;;;;12.05;7.78;;;;;;;;;;5011338;28;20036;-82
2021/05/29 04:26:13;;;;;;;12.40;7.60;;;;;;;;;;5012260;28;20102;-82
2021/05/29 04:28:39;;;;;;;13.13;7.90;;;;;;;;;;5012451;28;20020;-82
2021/05/29 04:31:05;;;;;;;13.85;8.15;;;;;;;;;;5012193;28;20026;-82
2021/05/29 04:33:30;;;;;;;13.13;6.75;;;;;;;;;;5012291;28;20389;-82
2021/05/29 04:35:56;;;;;;;12.38;7.95;;;;;;;;;;5012201;28;20022;-82
2021/05/29 04:38:21;;;;;;;18.67;8.40;;;;;;;;;;5012008;28;20060;-82
2021/05/29 04:40:46;;;;;;;13.98;8.02;;;;;;;;;;5012389;28;20029;-82
2021/05/29 04:43:12;;;;;;;15.95;8.23;;;;;;;;;;5011831;28;20086;-82
2021/05/29 04:45:37;;;;;;;12.95;8.05;;;;;;;;;;5012096;28;20438;-82
2021/05/29 04:48:02;;;;;;;11.73;7.57;;;;;;;;;;5010672;28;20455;-82
2021/05/29 04:50:27;;;;;;;15.38;9.05;;;;;;;;;;5011957;28;20049;-82
2021/05/29 04:52:53;;;;;;;12.32;8.10;;;;;;;;;;5011987;28;20029;-82
2021/05/29 04:55:18;;;;;;;15.73;8.98;;;;;;;;;;5011803;28;20025;-82
2021/05/29 04:57:43;;;;;;;13.88;8.82;;;;;;;;;;5012039;28;20117;-82
2021/05/29 05:00:10;;;;;;;15.45;9.85;;;;;;;;;;5011889;28;20025;-82
2021/05/29 05:02:36;;;;;;;13.15;8.80;;;;;;;;;;5025355;28;20018;-83
2021/05/29 05:05:01;;;;;;;12.50;8.07;;;;;;;;;;5027125;28;20022;-82
2021/05/29 05:07:26;;;;;;;13.02;8.73;;;;;;;;;;5011615;28;20455;-82
2021/05/29 05:09:51;;;;;;;11.52;7.22;;;;;;;;;;5010786;28;20488;-83
2021/05/29 05:12:17;;;;;;;13.95;9.02;;;;;;;;;;5011608;28;20098;-83
2021/05/29 05:14:42;;;;;;;18.85;9.10;;;;;;;;;;5010272;28;20427;-83
2021/05/29 05:17:07;;;;;;;13.60;8.80;;;;;;;;;;5010796;28;20029;-83
2021/05/29 05:19:32;;;;;;;13.77;9.52;;;;;;;;;;5010204;28;20022;-83
2021/05/29 05:21:58;;;;;;;13.82;8.30;;;;;;;;;;5010297;28;20018;-83
2021/05/29 05:24:23;;;;;;;12.25;7.93;;;;;;;;;;5011482;28;20369;-83
2021/05/29 05:26:48;;;;;;;13.70;9.32;;;;;;;;;;5010551;28;20047;-83
2021/05/29 05:29:14;;;;;;;15.32;8.45;;;;;;;;;;5011620;28;20014;-83
2021/05/29 05:31:39;;;;;;;11.20;7.38;;;;;;;;;;5011405;28;20025;-83
2021/05/29 05:34:09;;;;;;;14.43;9.90;;;;;;;;;;5011480;28;20029;-83
2021/05/29 05:36:35;;;;;;;14.98;8.60;;;;;;;;;;5011507;28;20029;-83
2021/05/29 05:39:00;;;;;;;13.98;8.93;;;;;;;;;;5010147;28;20018;-83
2021/05/29 05:41:25;;;;;;;23.13;9.32;;;;;;;;;;5009941;28;20499;-83
2021/05/29 05:43:50;;;;;;;16.02;9.65;;;;;;;;;;5011203;28;20109;-83
2021/05/29 05:46:16;;;;;;;14.02;7.45;;;;;;;;;;5011170;28;20097;-83
2021/05/29 05:48:42;;;;;;;20.52;9.43;;;;;;;;;;5026409;28;20020;-83
2021/05/29 05:51:07;;;;;;;19.55;9.18;;;;;;;;;;5011271;28;20034;-83
2021/05/29 05:53:32;;;;;;;17.00;10.18;;;;;;;;;;5026265;28;20508;-83
2021/05/29 05:56:00;;;;;;;17.50;10.23;;;;;;;;;;5011082;28;20369;-83
2021/05/29 05:58:26;;;;;;;12.30;8.65;;;;;;;;;;5010949;28;20056;-83
2021/05/29 06:00:51;;;;;;;13.85;10.07;;;;;;;;;;5012148;28;20481;-83
2021/05/29 06:03:16;;;;;;;17.58;9.90;;;;;;;;;;5011091;28;20034;-83
2021/05/29 06:05:41;;;;;;;15.95;10.18;;;;;;;;;;5010854;28;20064;-83
2021/05/29 06:08:06;;;;;;;19.75;10.68;;;;;;;;;;5010819;28;20078;-83
2021/05/29 06:10:32;;;;;;;17.13;10.50;;;;;;;;;;5009677;28;20030;-83
2021/05/29 06:12:57;;;;;;;19.40;10.52;;;;;;;;;;5010901;28;20540;-83
2021/05/29 06:20:32;;;;;;;13.43;8.52;;;;;;;;;;5011144;28;20025;-83
2021/05/29 06:22:57;;;;;;;14.20;9.93;;;;;;;;;;5010527;28;20461;-83
2021/05/29 06:25:23;;;;;;;15.13;9.77;;;;;;;;;;5010081;28;20021;-83
2021/05/29 06:27:48;;;;;;;18.63;10.65;;;;;;;;;;5009210;28;20104;-83
2021/05/29 06:30:13;;;;;;;15.02;9.40;;;;;;;;;;5009675;28;20106;-83
2021/05/29 06:32:39;;;;;;;16.30;10.18;;;;;;;;;;5065354;27;20024;-83
2021/05/29 06:35:06;;;;;;;15.23;9.95;;;;;;;;;;5012290;28;20030;-83
2021/05/29 06:37:31;;;;;;;17.55;9.35;;;;;;;;;;5010835;28;20030;-84
2021/05/29 06:39:57;;;;;;;18.50;10.82;;;;;;;;;;5027467;28;20125;-83
2021/05/29 06:42:22;;;;;;;22.55;11.48;;;;;;;;;;5043967;28;20034;-83
2021/05/29 06:44:47;;;;;;;20.42;10.77;;;;;;;;;;5009275;28;20022;-83
2021/05/29 06:47:12;;;;;;;19.95;10.40;;;;;;;;;;5021173;28;20022;-83
2021/05/29 06:49:39;;;;;;;23.13;11.63;;;;;;;;;;5026682;28;20026;-83
2021/05/29 06:52:14;;;;;;;19.45;11.65;;;;;;;;;;5008793;28;20026;-84
2021/05/29 06:59:49;;;;;;;18.48;10.98;;;;;;;;;;5010558;28;20021;-85
2021/05/29 07:02:14;;;;;;;19.33;11.38;;;;;;;;;;5008555;28;20026;-85
2021/05/29 07:04:40;;;;;;;25.85;11.68;;;;;;;;;;5020349;28;20365;-85
2021/05/29 07:07:05;;;;;;;23.13;10.95;;;;;;;;;;5012210;28;20026;-85
2021/05/29 07:09:30;;;;;;;20.15;10.02;;;;;;;;;;5011587;28;20010;-85
2021/05/29 07:11:55;;;;;;;19.25;10.75;;;;;;;;;;5010215;28;20025;-85
2021/05/29 07:14:21;;;;;;;17.45;10.85;;;;;;;;;;5010064;28;20103;-84
2021/05/29 07:16:47;;;;;;;19.92;9.57;;;;;;;;;;5008880;28;20452;-85
2021/05/29 07:19:13;;;;;;;16.33;9.30;;;;;;;;;;5008759;28;20018;-85
2021/05/29 07:21:39;;;;;;;16.65;9.43;;;;;;;;;;5010180;28;20080;-85
2021/05/29 07:24:05;;;;;;;16.50;9.93;;;;;;;;;;5008766;28;20026;-85
2021/05/29 07:26:30;;;;;;;17.67;9.27;;;;;;;;;;5009761;28;20380;-85
2021/05/29 07:28:55;;;;;;;11.48;7.38;;;;;;;;;;5008810;28;20018;-85
2021/05/29 07:31:21;;;;;;;12.45;8.35;;;;;;;;;;5022070;28;20028;-85
2021/05/29 07:33:49;;;;;;;15.52;8.65;;;;;;;;;;5009056;28;20033;-85
2021/05/29 07:36:15;;;;;;;11.82;7.85;;;;;;;;;;5012496;28;20484;-85
2021/05/29 07:38:41;;;;;;;17.73;9.18;;;;;;;;;;5011762;28;20026;-85
2021/05/29 07:41:06;;;;;;;14.45;8.02;;;;;;;;;;5010982;28;20049;-85
2021/05/29 07:43:31;;;;;;;11.77;6.78;;;;;;;;;;5011421;28;20158;-85
2021/05/29 07:45:56;;;;;;;13.60;6.85;;;;;;;;;;5020142;28;20026;-85
2021/05/29 07:48:21;;;;;;;12.50;7.07;;;;;;;;;;5031191;28;20389;-85
2021/05/29 07:51:05;;;;;;;12.90;7.47;;;;;;;;;;5107493;28;20098;-85
2021/05/29 07:53:32;;;;;;;9.40;5.85;;;;;;;;;;5028815;28;20060;-85
2021/05/29 07:55:58;;;;;;;9.60;5.80;;;;;;;;;;5014579;28;20018;-85
2021/05/29 07:58:23;;;;;;;9.85;5.30;;;;;;;;;;5017842;28;20056;-85
2021/05/29 08:00:52;;;;;;;9.35;5.40;;;;;;;;;;5024298;28;20052;-85
2021/05/29 08:03:18;;;;;;;8.65;5.18;;;;;;;;;;5009345;28;20118;-85
2021/05/29 08:05:43;;;;;;;12.10;5.32;;;;;;;;;;5060000;28;20070;-85
2021/05/29 08:08:09;;;;;;;12.68;5.20;;;;;;;;;;5020987;28;20044;-85
2021/05/29 08:10:34;;;;;;;8.98;4.95;;;;;;;;;;5067687;28;20021;-85
2021/05/29 08:12:59;;;;;;;5.35;2.55;;;;;;;;;;5030261;28;20060;-85
2021/05/29 08:15:24;;;;;;;4.70;2.70;;;;;;;;;;5012910;28;20053;-85
2021/05/29 08:17:49;;;;;;;7.32;2.83;;;;;;;;;;5011379;28;20014;-85
2021/05/29 08:20:15;;;;;;;6.88;3.22;;;;;;;;;;5012738;28;20022;-85
2021/05/29 08:22:40;;;;;;;5.28;3.03;;;;;;;;;;5012446;28;20022;-85
2021/05/29 08:25:06;;;;;;;5.72;3.10;;;;;;;;;;5012686;28;20021;-85
2021/05/29 08:27:31;;;;;;;4.65;2.72;;;;;;;;;;5012777;28;20480;-85
2021/05/29 08:29:57;;;;;;;7.18;3.15;;;;;;;;;;5013704;28;20022;-85
2021/05/29 08:32:22;;;;;;;5.93;2.70;;;;;;;;;;5011507;28;20038;-85
2021/05/29 08:34:48;;;;;;;4.65;2.60;;;;;;;;;;5011201;28;20044;-85
2021/05/29 08:37:13;;;;;;;6.53;3.20;;;;;;;;;;5027637;28;20022;-85
2021/05/29 08:39:38;;;;;;;7.43;3.55;;;;;;;;;;5012273;28;20017;-85
2021/05/29 08:42:04;;;;;;;4.95;2.80;;;;;;;;;;5012294;28;20021;-85
2021/05/29 08:44:31;;;;;;;4.53;2.75;;;;;;;;;;5011270;28;20064;-85
2021/05/29 08:46:56;;;;;;;5.15;2.90;;;;;;;;;;5011804;28;20049;-85
2021/05/29 08:49:21;;;;;;;4.13;2.28;;;;;;;;;;5012426;28;20428;-86
2021/05/29 08:51:47;;;;;;;6.80;2.45;;;;;;;;;;5029156;28;20062;-85
2021/05/29 08:54:12;;;;;;;5.18;2.70;;;;;;;;;;5030271;28;20512;-85
2021/05/29 08:56:38;;;;;;;4.45;2.63;;;;;;;;;;5046991;28;20027;-85
2021/05/29 08:59:03;;;;;;;5.28;2.70;;;;;;;;;;5027339;28;20030;-85
2021/05/29 09:01:28;;;;;;;4.68;2.92;;;;;;;;;;5027195;28;20037;-85
2021/05/29 09:03:55;;;;;;;7.30;3.08;;;;;;;;;;5010598;28;20018;-85
2021/05/29 09:06:36;;;;;;;8.27;2.75;;;;;;;;;;5010777;28;20049;-85
2021/05/29 09:09:06;;;;;;;6.38;2.60;;;;;;;;;;5010811;28;20014;-85
2021/05/29 09:11:48;;;;;;;6.85;2.67;;;;;;;;;;5012044;28;20041;-85
2021/05/29 09:14:32;;;;;;;7.57;2.20;;;;;;;;;;5008461;28;20026;-86
2021/05/29 09:17:02;;;;;;;6.85;2.70;;;;;;;;;;5010666;28;20057;-85
2021/05/29 09:19:27;;;;;;;5.43;2.83;;;;;;;;;;5010440;28;20029;-85
2021/05/29 09:21:52;;;;;;;6.57;2.78;;;;;;;;;;5011823;28;20021;-85
2021/05/29 09:24:18;;;;;;;7.70;3.33;;;;;;;;;;5011649;28;20485;-85
2021/05/29 09:26:43;;;;;;;4.45;2.58;;;;;;;;;;5010462;28;20075;-85
2021/05/29 09:29:11;;;;;;;5.03;2.55;;;;;;;;;;5010534;28;20022;-85
2021/05/29 09:31:48;;;;;;;6.20;2.28;;;;;;;;;;5010112;28;20022;-85
2021/05/29 09:34:26;;;;;;;4.90;2.78;;;;;;;;;;5010564;28;20028;-85
2021/05/29 09:37:00;;;;;;;4.28;2.58;;;;;;;;;;5010324;28;20053;-85
2021/05/29 09:39:28;;;;;;;3.53;2.58;;;;;;;;;;5010391;28;20388;-86
2021/05/29 09:41:54;;;;;;;6.63;2.95;;;;;;;;;;5011224;28;20026;-85
2021/05/29 09:44:25;;;;;;;4.95;1.80;;;;;;;;;;5010006;28;20055;-85
2021/05/29 09:46:51;;;;;;;16.27;2.60;;;;;;;;;;5012165;28;20571;-85
2021/05/29 09:49:17;;;;;;;5.25;3.10;;;;;;;;;;5028093;28;20114;-85
2021/05/29 09:51:42;;;;;;;5.38;2.80;;;;;;;;;;5031500;28;20554;-86
2021/05/29 09:54:08;;;;;;;6.22;3.13;;;;;;;;;;5009503;28;20026;-84
2021/05/29 09:56:37;;;;;;;5.32;2.58;;;;;;;;;;5010618;28;20018;-85
2021/05/29 09:59:05;;;;;;;4.93;2.42;;;;;;;;;;5016483;28;20040;-85
2021/05/29 10:01:34;;;;;;;7.25;2.83;;;;;;;;;;5014224;28;20401;-85
2021/05/29 10:04:00;;;;;;;9.18;3.67;;;;;;;;;;5009775;28;20151;-85
2021/05/29 10:06:25;;;;;;;5.75;3.50;;;;;;;;;;5011277;28;20056;-85
2021/05/29 10:08:51;;;;;;;8.07;4.03;;;;;;;;;;5019318;28;20481;-85
2021/05/29 10:11:16;;;;;;;6.22;3.75;;;;;;;;;;5016050;28;20013;-85
2021/05/29 10:13:41;;;;;;;7.10;4.30;;;;;;;;;;5046528;28;20023;-85
2021/05/29 10:16:06;;;;;;;7.18;3.90;;;;;;;;;;5022585;28;20033;-85
2021/05/29 10:18:32;;;;;;;10.48;5.25;;;;;;;;;;5014867;28;20040;-86
2021/05/29 10:20:57;;;;;;;8.02;4.15;;;;;;;;;;5015170;28;20026;-85
2021/05/29 10:23:23;;;;;;;8.32;5.20;;;;;;;;;;5011454;28;20053;-84
2021/05/29 10:25:49;;;;;;;7.40;3.90;;;;;;;;;;5018161;28;20464;-85
2021/05/29 10:28:15;;;;;;;6.45;3.97;;;;;;;;;;5010678;28;20524;-85
2021/05/29 10:30:40;;;;;;;8.23;4.13;;;;;;;;;;5009528;28;20026;-85
2021/05/29 10:33:11;;;;;;;6.85;4.50;;;;;;;;;;5009452;28;20056;-86
2021/05/29 10:35:42;;;;;;;6.80;4.28;;;;;;;;;;5009518;28;20434;-86
2021/05/29 10:38:07;;;;;;;8.65;4.80;;;;;;;;;;5009081;28;20029;-85
2021/05/29 10:40:37;;;;;;;6.45;4.13;;;;;;;;;;5009632;28;20365;-85
2021/05/29 10:43:09;;;;;;;8.60;4.15;;;;;;;;;;5009788;28;20030;-85
2021/05/29 10:45:39;;;;;;;5.93;3.78;;;;;;;;;;5009510;28;20014;-85
2021/05/29 10:48:07;;;;;;;8.00;3.67;;;;;;;;;;5009407;28;20037;-86
2021/05/29 10:53:36;;;;;;;7.32;3.58;;;;;;;;;;5010419;28;20028;-85
2021/05/29 10:58:54;;;;;;;5.03;2.88;;;;;;;;;;5011598;28;20021;-85
2021/05/29 11:01:19;;;;;;;6.35;3.78;;;;;;;;;;5009816;28;20373;-85
2021/05/29 11:03:45;;;;;;;6.55;3.50;;;;;;;;;;5009611;28;20029;-86
2021/05/29 11:06:29;;;;;;;4.82;3.15;;;;;;;;;;5009755;28;20022;-85
2021/05/29 11:08:57;;;;;;;6.13;3.08;;;;;;;;;;5009817;28;20049;-85
2021/05/29 11:14:07;;;;;;;4.32;3.15;;;;;;;;;;5013466;28;20106;-85
2021/05/29 11:16:51;;;;;;;5.32;2.50;;;;;;;;;;5013033;28;20053;-85
2021/05/29 11:19:17;;;;;;;7.90;3.40;;;;;;;;;;5012858;28;20060;-86
2021/05/29 11:22:01;;;;;;;4.00;2.72;;;;;;;;;;5013142;28;20075;-84
2021/05/29 11:24:28;;;;;;;10.60;3.40;;;;;;;;;;5018727;28;20492;-85
2021/05/29 11:26:53;;;;;;;6.10;2.75;;;;;;;;;;5026046;28;20465;-86
2021/05/29 11:29:19;;;;;;;7.13;3.45;;;;;;;;;;5013611;28;20024;-85
2021/05/29 11:31:45;;;;;;;7.00;3.28;;;;;;;;;;5012237;28;20025;-86
2021/05/29 11:34:10;;;;;;;6.15;2.40;;;;;;;;;;5008815;28;20023;-85
2021/05/29 11:36:38;;;;;;;10.30;3.05;;;;;;;;;;5025979;28;20492;-85
2021/05/29 11:39:08;;;;;;;5.45;3.00;;;;;;;;;;5013738;28;20022;-85
2021/05/29 11:41:33;;;;;;;7.03;3.08;;;;;;;;;;5011973;28;20038;-85
2021/05/29 11:43:58;;;;;;;7.80;2.40;;;;;;;;;;5028681;28;20034;-86
2021/05/29 11:46:27;;;;;;;8.13;2.95;;;;;;;;;;5013113;28;20022;-85
2021/05/29 11:48:54;;;;;;;4.43;2.20;;;;;;;;;;4998712;28;20116;-85
2021/05/29 11:51:20;;;;;;;10.48;3.60;;;;;;;;;;5013237;28;20380;-85
2021/05/29 11:53:47;;;;;;;6.53;2.38;;;;;;;;;;5013616;28;20033;-86
2021/05/29 11:56:14;;;;;;;4.32;2.10;;;;;;;;;;5013173;28;20034;-86
2021/05/29 11:58:43;;;;;;;6.35;3.22;;;;;;;;;;5028239;28;20045;-85
2021/05/29 12:01:09;;;;;;;5.85;2.70;;;;;;;;;;5011625;28;20061;-85
2021/05/29 12:03:34;;;;;;;4.82;2.40;;;;;;;;;;5013154;28;20090;-85
2021/05/29 12:06:00;;;;;;;4.38;2.10;;;;;;;;;;5012921;28;20438;-86
2021/05/29 12:08:25;;;;;;;6.80;2.15;;;;;;;;;;5028315;28;20109;-85
2021/05/29 12:10:51;;;;;;;4.70;2.45;;;;;;;;;;5011667;28;20021;-85
2021/05/29 12:13:27;;;;;;;4.22;1.92;;;;;;;;;;5012955;28;20412;-86
2021/05/29 12:16:02;;;;;;;3.05;2.00;;;;;;;;;;5012361;28;20030;-86
2021/05/29 12:18:37;;;;;;;5.75;2.60;;;;;;;;;;5011629;28;20427;-86
2021/05/29 12:21:03;;;;;;;5.18;2.40;;;;;;;;;;5012456;28;20034;-85
2021/05/29 12:23:28;;;;;;;4.43;2.92;;;;;;;;;;5027128;28;20075;-85
2021/05/29 12:25:53;;;;;;;5.13;2.63;;;;;;;;;;5012566;28;20018;-85
2021/05/29 12:28:20;;;;;;;5.55;2.60;;;;;;;;;;5028741;28;20042;-85
2021/05/29 12:30:48;;;;;;;3.83;2.20;;;;;;;;;;5011408;28;20014;-86
2021/05/29 12:33:23;;;;;;;4.50;2.10;;;;;;;;;;5011486;28;20360;-85
2021/05/29 12:35:48;;;;;;;6.00;2.47;;;;;;;;;;5012622;28;20101;-85
2021/05/29 12:38:15;;;;;;;4.43;2.58;;;;;;;;;;5012529;28;20045;-85
2021/05/29 12:40:53;;;;;;;3.22;1.90;;;;;;;;;;5011142;28;20018;-85
2021/05/29 12:43:19;;;;;;;6.07;2.22;;;;;;;;;;5010761;28;20033;-85
2021/05/29 12:45:44;;;;;;;4.65;2.60;;;;;;;;;;5012400;28;20014;-86
2021/05/29 12:48:11;;;;;;;4.22;2.22;;;;;;;;;;5012535;28;20014;-85
2021/05/29 12:50:59;;;;;;;10.40;2.63;;;;;;;;;;5010994;28;20014;-85
2021/05/29 12:53:25;;;;;;;5.38;2.60;;;;;;;;;;5012159;28;20025;-85
2021/05/29 12:56:05;;;;;;;6.25;2.60;;;;;;;;;;5027562;28;20022;-86
2021/05/29 12:58:30;;;;;;;5.85;2.15;;;;;;;;;;5012121;28;20147;-85
2021/05/29 13:09:24;;;;;;;4.03;2.08;;;;;;;;;;5038899;28;20019;-85
2021/05/29 13:11:49;;;;;;;6.32;2.65;;;;;;;;;;5051955;28;20010;-85
2021/05/29 13:14:16;;;;;;;2.83;2.20;;;;;;;;;;5066009;28;20033;-85
2021/05/29 13:17:03;;;;;;;2.20;1.67;;;;;;;;;;5043791;28;20018;-85
2021/05/29 13:19:30;;;;;;;4.75;2.25;;;;;;;;;;5038549;28;20024;-85
2021/05/29 13:22:00;;;;;;;4.55;2.20;;;;;;;;;;5058986;28;20039;-85
2021/05/29 13:24:44;;;;;;;3.83;2.25;;;;;;;;;;5042213;28;20069;-85
2021/05/29 13:27:11;;;;;;;4.97;2.05;;;;;;;;;;5062736;28;20014;-85
2021/05/29 13:29:36;;;;;;;3.83;2.53;;;;;;;;;;5088387;28;20028;-85
2021/05/29 13:32:02;;;;;;;3.63;2.85;;;;;;;;;;5056488;28;20026;-85
2021/05/29 13:34:28;;;;;;;8.00;2.78;;;;;;;;;;5070214;28;20020;-85
2021/05/29 13:36:53;;;;;;;4.07;2.28;;;;;;;;;;5047269;28;20412;-85
2021/05/29 13:39:18;;;;;;;7.50;2.40;;;;;;;;;;5045666;28;20015;-85
2021/05/29 13:41:44;;;;;;;5.78;2.78;;;;;;;;;;5066178;28;20051;-85
2021/05/29 13:44:09;;;;;;;5.13;2.80;;;;;;;;;;5088357;28;20033;-85
2021/05/29 13:46:34;;;;;;;4.63;2.30;;;;;;;;;;5065302;28;20015;-85
2021/05/29 13:48:59;;;;;;;5.93;1.90;;;;;;;;;;5031831;28;20513;-85
2021/05/29 13:51:24;;;;;;;8.40;2.08;;;;;;;;;;5044626;28;20010;-85
2021/05/29 13:53:50;;;;;;;4.50;2.05;;;;;;;;;;5042849;28;20055;-85
2021/05/29 13:56:15;;;;;;;3.72;1.98;;;;;;;;;;5058512;28;20053;-85
2021/05/29 13:58:40;;;;;;;7.07;1.83;;;;;;;;;;5057019;28;20101;-85
2021/05/29 14:01:05;;;;;;;6.32;2.60;;;;;;;;;;5026429;28;20087;-85
2021/05/29 14:03:31;;;;;;;4.65;2.80;;;;;;;;;;5011119;28;20533;-85
2021/05/29 14:05:56;;;;;;;4.45;2.28;;;;;;;;;;5083929;28;20045;-85
2021/05/29 14:08:21;;;;;;;3.40;1.80;;;;;;;;;;5011164;28;20025;-84
2021/05/29 14:10:46;;;;;;;5.13;2.13;;;;;;;;;;5009760;28;20018;-84
2021/05/29 14:13:11;;;;;;;5.00;2.15;;;;;;;;;;5011035;28;20029;-84
2021/05/29 14:15:37;;;;;;;5.68;2.92;;;;;;;;;;5009573;28;20021;-84
2021/05/29 14:18:02;;;;;;;3.53;2.40;;;;;;;;;;5009486;28;20122;-84
2021/05/29 14:20:28;;;;;;;7.15;2.55;;;;;;;;;;5009776;28;20025;-85
2021/05/29 14:22:53;;;;;;;8.30;3.40;;;;;;;;;;5038446;28;20057;-84
2021/05/29 14:25:18;;;;;;;4.18;2.38;;;;;;;;;;5010717;28;20022;-85
2021/05/29 14:27:43;;;;;;;5.55;2.13;;;;;;;;;;5025816;28;20029;-84
2021/05/29 14:30:09;;;;;;;5.60;2.60;;;;;;;;;;5027006;28;20017;-84
2021/05/29 14:32:34;;;;;;;6.28;2.92;;;;;;;;;;5009457;28;20112;-84
2021/05/29 14:35:00;;;;;;;3.72;1.83;;;;;;;;;;5009220;28;20080;-85
2021/05/29 14:37:25;;;;;;;9.00;2.15;;;;;;;;;;5026670;28;20023;-85
2021/05/29 14:39:50;;;;;;;2.80;2.00;;;;;;;;;;5021313;28;20085;-85
2021/05/29 14:42:15;;;;;;;4.50;1.50;;;;;;;;;;5044496;28;20028;-85
2021/05/29 14:44:40;;;;;;;6.28;1.85;;;;;;;;;;5075054;28;20020;-85
2021/05/29 14:47:06;;;;;;;3.25;2.00;;;;;;;;;;5037547;28;20018;-85
2021/05/29 14:49:31;;;;;;;4.10;1.92;;;;;;;;;;5040183;28;20394;-85
2021/05/29 14:51:56;;;;;;;7.03;1.48;;;;;;;;;;5063884;28;20014;-85
2021/05/29 14:54:23;;;;;;;4.22;1.50;;;;;;;;;;5071882;28;20683;-85
2021/05/29 14:56:48;;;;;;;6.40;2.58;;;;;;;;;;5073676;28;20019;-85
2021/05/29 14:59:13;;;;;;;4.15;1.60;;;;;;;;;;5030884;28;20434;-85
2021/05/29 15:01:41;;;;;;;7.85;2.00;;;;;;;;;;5042575;28;20723;-85